Time;durP1;ratioP1;P1;durP2;ratioP2;P2;SDS_P1;SDS_P2;PMS_P1;PMS_P2;Temp;Humidity;BMP_temperature;BMP_pressure;BME280_temperature;BME280_humidity;BME280_pressure;Samples;Min_cycle;Max_cycle;Signal;HPM_P1;HPM_P2
2023/05/27 08:56:30;;;;;;;22.70;6.43;;;;;;;14.14;74.38;102441.00;5110533;27;1220746;-72
2023/05/27 08:58:56;;;;;;;23.20;7.20;;;;;;;14.26;75.30;102436.59;5130482;27;20574;-73
2023/05/27 09:01:21;;;;;;;21.80;7.50;;;;;;;14.47;76.13;102429.25;5128468;27;20054;-75
2023/05/27 09:03:47;;;;;;;21.85;7.57;;;;;;;14.65;73.82;102431.34;5129393;28;20062;-72
2023/05/27 09:06:13;;;;;;;27.17;7.82;;;;;;;14.62;69.20;102440.78;5129854;28;20378;-70
2023/05/27 09:08:38;;;;;;;22.27;7.50;;;;;;;14.74;68.75;102424.59;5130775;28;20467;-69
2023/05/27 09:11:07;;;;;;;21.33;7.45;;;;;;;14.74;67.80;102412.88;5129195;27;20023;-73
2023/05/27 09:13:33;;;;;;;23.00;7.75;;;;;;;14.95;67.32;102423.50;5130735;27;20035;-70
2023/05/27 09:16:03;;;;;;;21.83;7.28;;;;;;;14.95;67.01;102418.03;5129163;27;20038;-69
2023/05/27 09:18:31;;;;;;;21.90;7.97;;;;;;;15.00;68.13;102411.94;5130326;27;20480;-74
2023/05/27 09:21:00;;;;;;;18.45;7.50;;;;;;;15.05;66.98;102410.25;5130218;27;20480;-71
2023/05/27 09:23:26;;;;;;;22.92;8.00;;;;;;;15.14;66.84;102412.69;5130699;27;20062;-73
2023/05/27 09:25:52;;;;;;;23.02;7.10;;;;;;;15.24;66.48;102404.88;5126078;27;20434;-74
2023/05/27 09:28:25;;;;;;;22.63;7.45;;;;;;;15.33;67.83;102406.31;5110459;28;20066;-73
2023/05/27 09:30:59;;;;;;;22.33;7.85;;;;;;;15.44;66.36;102403.94;5107895;28;20402;-69
2023/05/27 09:33:24;;;;;;;22.98;7.18;;;;;;;15.60;62.94;102398.78;5114204;28;20031;-74
2023/05/27 09:35:50;;;;;;;17.65;6.85;;;;;;;15.62;59.95;102400.47;5126304;27;20046;-77
2023/05/27 09:38:15;;;;;;;18.25;6.97;;;;;;;15.69;60.11;102402.09;5129783;27;20058;-72
2023/05/27 09:40:44;;;;;;;18.80;6.80;;;;;;;15.76;60.59;102396.56;5127028;27;20454;-70
2023/05/27 09:43:13;;;;;;;18.50;6.90;;;;;;;15.80;60.37;102391.53;5129368;27;20032;-74
2023/05/27 09:45:40;;;;;;;18.17;6.90;;;;;;;15.93;60.19;102397.72;5125947;28;20080;-74
2023/05/27 09:48:07;;;;;;;18.50;6.32;;;;;;;15.93;59.05;102399.63;5108853;28;20043;-72
2023/05/27 09:50:33;;;;;;;20.50;7.38;;;;;;;15.90;59.29;102391.88;5126084;28;20123;-71
2023/05/27 09:53:01;;;;;;;23.60;7.40;;;;;;;16.06;60.27;102394.06;5129094;28;20028;-73
2023/05/27 09:55:28;;;;;;;21.02;7.00;;;;;;;16.22;60.94;102389.91;5128102;27;20044;-72
2023/05/27 09:57:54;;;;;;;17.75;6.55;;;;;;;16.38;58.72;102382.16;5128439;27;20035;-71
2023/05/27 10:00:20;;;;;;;20.70;7.07;;;;;;;16.46;58.69;102379.97;5108905;28;20032;-72
2023/05/27 10:02:47;;;;;;;21.80;7.22;;;;;;;16.52;58.52;102375.50;5121826;28;20084;-72
2023/05/27 10:05:14;;;;;;;20.02;6.35;;;;;;;16.53;56.91;102379.06;5127758;28;20134;-72
2023/05/27 10:07:41;;;;;;;20.85;7.10;;;;;;;16.58;57.25;102373.78;5103393;27;20031;-72
2023/05/27 10:10:16;;;;;;;24.35;7.57;;;;;;;16.64;56.97;102375.59;5112589;28;20027;-70
2023/05/27 10:12:44;;;;;;;17.27;6.60;;;;;;;16.56;58.27;102368.53;5105428;28;20020;-72
2023/05/27 10:15:20;;;;;;;18.73;6.53;;;;;;;16.53;56.69;102369.00;5113160;28;20159;-71
2023/05/27 10:17:53;;;;;;;21.10;6.60;;;;;;;16.48;56.16;102368.81;5115246;28;20110;-74
2023/05/27 10:20:37;;;;;;;23.67;6.97;;;;;;;16.56;57.17;102360.34;5099543;28;20027;-71
2023/05/27 10:23:13;;;;;;;18.77;6.30;;;;;;;16.64;57.16;102360.00;5110111;28;20465;-74
2023/05/27 10:25:40;;;;;;;16.17;6.28;;;;;;;16.67;56.70;102350.53;5115741;28;20465;-72
2023/05/27 10:28:07;;;;;;;24.13;7.05;;;;;;;16.80;57.60;102347.63;5112329;28;20455;-74
2023/05/27 10:30:45;;;;;;;19.38;6.75;;;;;;;16.91;57.85;102353.38;5108338;28;20482;-73
2023/05/27 10:33:11;;;;;;;22.05;7.57;;;;;;;16.96;57.75;102350.81;5114522;28;20027;-75
2023/05/27 10:35:41;;;;;;;21.75;7.55;;;;;;;17.04;56.41;102352.38;5114640;27;20478;-74
2023/05/27 10:38:17;;;;;;;22.17;7.13;;;;;;;17.13;57.02;102349.06;5113919;28;20122;-74
2023/05/27 10:40:45;;;;;;;26.88;7.57;;;;;;;17.38;56.40;102342.63;5113563;28;20097;-74
2023/05/27 10:43:18;;;;;;;19.48;7.03;;;;;;;17.43;56.09;102347.41;5115138;28;20496;-72
2023/05/27 10:45:44;;;;;;;21.33;7.18;;;;;;;17.46;55.39;102334.06;5115583;28;20066;-73
2023/05/27 10:48:19;;;;;;;22.75;7.55;;;;;;;17.57;54.72;102339.81;5111095;28;20042;-75
2023/05/27 10:50:52;;;;;;;18.80;6.20;;;;;;;17.70;54.09;102334.09;5113996;28;20087;-73
2023/05/27 10:53:20;;;;;;;22.10;6.68;;;;;;;17.89;53.52;102330.22;5113033;28;20027;-73
2023/05/27 10:55:48;;;;;;;23.02;6.55;;;;;;;18.05;54.06;102322.34;5115014;28;20091;-74
2023/05/27 10:58:15;;;;;;;20.42;7.05;;;;;;;18.08;53.92;102318.31;5113473;28;20028;-74
2023/05/27 11:00:42;;;;;;;22.25;6.85;;;;;;;18.09;53.53;102314.47;5109007;28;20016;-73
2023/05/27 11:03:25;;;;;;;19.38;6.80;;;;;;;18.21;52.78;102318.88;5108005;28;20046;-74
2023/05/27 11:06:06;;;;;;;22.08;7.43;;;;;;;18.27;52.60;102314.34;5097690;28;20119;-77
2023/05/27 11:08:34;;;;;;;;;;;;;;;18.31;53.72;102304.56;5093426;28;20028;-72
2023/05/27 11:11:10;;;;;;;22.75;9.02;;;;;;;18.10;51.57;102299.72;5110325;28;19962;-76
2023/05/27 11:13:39;;;;;;;18.95;7.47;;;;;;;18.35;52.48;102289.31;5114856;28;20030;-74
2023/05/27 11:16:07;;;;;;;21.33;6.72;;;;;;;18.49;51.26;102292.59;5104213;28;20385;-75
2023/05/27 11:18:44;;;;;;;18.30;7.13;;;;;;;18.55;50.48;102290.78;5103379;28;20136;-76
2023/05/27 11:21:11;;;;;;;21.85;6.93;;;;;;;18.75;50.03;102287.59;5109086;28;20038;-74
2023/05/27 11:23:43;;;;;;;19.95;6.93;;;;;;;18.94;50.69;102288.28;5111742;28;20031;-76
2023/05/27 11:26:29;;;;;;;21.48;7.25;;;;;;;18.95;50.60;102282.53;5112504;28;20076;-76
2023/05/27 11:28:58;;;;;;;20.00;6.72;;;;;;;18.95;49.95;102282.53;5110774;28;20387;-75
2023/05/27 11:31:28;;;;;;;15.93;6.28;;;;;;;19.11;50.09;102267.19;5114171;28;20106;-78
2023/05/27 11:33:54;;;;;;;19.15;5.80;;;;;;;19.18;47.36;102267.03;5114092;28;20055;-77
2023/05/27 11:36:23;;;;;;;17.70;5.35;;;;;;;19.27;46.90;102268.28;5114226;28;20070;-76
2023/05/27 11:38:52;;;;;;;17.73;5.60;;;;;;;19.33;46.25;102258.22;5112254;28;20401;-74
2023/05/27 11:41:19;;;;;;;20.38;5.70;;;;;;;19.36;45.21;102263.22;5114034;28;20073;-74
2023/05/27 11:43:51;;;;;;;14.30;5.15;;;;;;;19.58;47.14;102249.56;5114163;28;20034;-77
2023/05/27 11:46:17;;;;;;;19.15;5.72;;;;;;;19.63;43.76;102255.13;5113909;28;20035;-74
2023/05/27 11:48:44;;;;;;;16.67;4.90;;;;;;;19.65;42.48;102250.19;5112708;28;20406;-78
2023/05/27 11:51:10;;;;;;;16.92;4.85;;;;;;;19.77;43.59;102252.00;5113355;28;20514;-77
2023/05/27 11:53:45;;;;;;;14.77;4.30;;;;;;;19.97;44.82;102249.59;5113959;28;20024;-74
2023/05/27 11:56:11;;;;;;;13.38;4.95;;;;;;;19.95;40.29;102238.00;5112051;28;20051;-76
2023/05/27 11:58:36;;;;;;;18.83;5.40;;;;;;;20.14;42.41;102229.44;5113964;28;20027;-77
2023/05/27 12:01:03;;;;;;;16.60;4.95;;;;;;;20.21;42.04;102232.84;5110575;28;20035;-76
2023/05/27 12:03:29;;;;;;;19.27;4.75;;;;;;;20.33;41.14;102230.78;5106793;28;20040;-74
2023/05/27 12:05:54;;;;;;;13.05;4.72;;;;;;;20.54;41.86;102228.25;5113188;28;20028;-72
2023/05/27 12:08:19;;;;;;;18.25;4.70;;;;;;;20.63;42.42;102218.44;5093236;28;20032;-74
2023/05/27 12:10:50;;;;;;;16.27;5.35;;;;;;;20.70;41.71;102221.84;5111254;28;20534;-75
2023/05/27 12:13:15;;;;;;;15.30;4.72;;;;;;;20.81;41.48;102220.03;5110084;28;20057;-77
2023/05/27 12:15:40;;;;;;;18.13;5.25;;;;;;;20.80;40.90;102206.53;5113173;28;20115;-75
2023/05/27 12:18:06;;;;;;;17.85;5.97;;;;;;;20.86;40.71;102211.00;5113079;27;20038;-75
2023/05/27 12:20:31;;;;;;;15.80;5.65;;;;;;;20.81;39.80;102205.44;5112186;28;20390;-72
2023/05/27 12:22:57;;;;;;;20.95;6.00;;;;;;;20.81;40.61;102199.94;5112954;28;20090;-76
2023/05/27 12:25:22;;;;;;;17.23;4.88;;;;;;;20.86;40.97;102205.50;5097065;28;20043;-77
2023/05/27 12:27:47;;;;;;;18.83;5.60;;;;;;;20.83;40.62;102184.00;5092986;28;20035;-73
2023/05/27 12:30:13;;;;;;;19.88;5.15;;;;;;;20.92;40.02;102184.34;5101436;28;20108;-77
2023/05/27 12:32:38;;;;;;;16.38;4.63;;;;;;;21.06;40.86;102191.91;5113324;28;20020;-71
2023/05/27 12:35:05;;;;;;;16.42;4.85;;;;;;;21.11;39.02;102177.34;5112977;28;20028;-74
2023/05/27 12:37:30;;;;;;;17.48;5.30;;;;;;;21.33;41.16;102168.13;5113056;28;20378;-70
2023/05/27 12:39:55;;;;;;;12.15;4.50;;;;;;;21.45;40.30;102168.75;5111831;28;20032;-72
2023/05/27 12:42:21;;;;;;;13.20;4.97;;;;;;;21.57;40.17;102176.84;5111574;28;20118;-76
2023/05/27 12:44:46;;;;;;;16.15;5.25;;;;;;;21.61;38.80;102166.13;5111673;28;20027;-73
2023/05/27 12:47:11;;;;;;;12.57;4.60;;;;;;;21.62;38.35;102159.50;5112575;28;20458;-77
2023/05/27 12:49:37;;;;;;;16.10;4.85;;;;;;;21.66;38.46;102166.16;5112155;28;20043;-74
2023/05/27 12:52:02;;;;;;;15.40;5.18;;;;;;;21.67;37.75;102163.13;5111515;28;20406;-71
2023/05/27 12:54:28;;;;;;;15.18;5.20;;;;;;;21.68;37.67;102158.44;5112689;28;20096;-75
2023/05/27 12:56:53;;;;;;;16.58;5.30;;;;;;;21.67;38.33;102152.09;5113045;28;20055;-72
2023/05/27 12:59:20;;;;;;;16.25;4.90;;;;;;;21.75;39.49;102156.28;5111821;28;20082;-78
2023/05/27 13:01:45;;;;;;;16.95;4.40;;;;;;;21.88;38.69;102157.72;5109294;28;20077;-74
2023/05/27 13:04:10;;;;;;;19.15;5.15;;;;;;;21.97;37.98;102149.72;5113051;28;20027;-80
2023/05/27 13:06:36;;;;;;;17.80;4.80;;;;;;;22.05;38.17;102147.28;5111562;28;20028;-73
2023/05/27 13:09:02;;;;;;;16.55;4.53;;;;;;;22.19;37.80;102146.78;5112184;28;20102;-71
2023/05/27 13:11:27;;;;;;;15.38;4.68;;;;;;;22.24;37.62;102142.09;5112487;28;20394;-74
2023/05/27 13:13:53;;;;;;;14.13;4.80;;;;;;;22.24;38.07;102144.03;5112873;28;20039;-74
2023/05/27 13:16:18;;;;;;;16.15;4.70;;;;;;;22.30;37.89;102143.78;5112322;28;20027;-71
2023/05/27 13:18:44;;;;;;;18.45;4.28;;;;;;;22.30;35.92;102134.69;5112811;28;20080;-76
2023/05/27 13:21:09;;;;;;;13.13;4.72;;;;;;;22.34;36.19;102134.97;5111455;28;20539;-72
2023/05/27 13:23:35;;;;;;;13.77;4.30;;;;;;;22.47;37.68;102142.72;5112478;28;20045;-75
2023/05/27 13:26:00;;;;;;;10.98;4.15;;;;;;;22.67;36.36;102143.84;5112475;28;20031;-77
2023/05/27 13:28:25;;;;;;;14.40;4.20;;;;;;;22.72;36.87;102132.78;5112749;28;20084;-74
2023/05/27 13:30:51;;;;;;;14.02;4.45;;;;;;;22.86;35.81;102138.56;5109433;28;20469;-70
2023/05/27 13:33:16;;;;;;;13.80;4.40;;;;;;;22.79;37.25;102123.13;5109942;28;20114;-71
2023/05/27 13:35:42;;;;;;;17.73;4.28;;;;;;;22.87;35.04;102127.25;5105999;28;20032;-73
2023/05/27 13:38:13;;;;;;;12.40;4.25;;;;;;;22.88;34.44;102130.88;5111411;28;20040;-74
2023/05/27 13:40:42;;;;;;;13.50;4.28;;;;;;;22.94;35.84;102127.81;5112378;28;20028;-74
2023/05/27 13:43:08;;;;;;;13.90;4.18;;;;;;;23.11;36.69;102113.72;5116008;28;20024;-74
2023/05/27 13:45:34;;;;;;;10.85;3.85;;;;;;;23.17;34.23;102112.63;5116134;28;20035;-73
2023/05/27 13:47:59;;;;;;;12.85;4.07;;;;;;;23.20;34.16;102111.22;5108083;28;20092;-75
2023/05/27 13:50:25;;;;;;;10.93;4.05;;;;;;;23.18;34.63;102105.16;5095531;28;20032;-72
2023/05/27 13:52:50;;;;;;;11.02;3.95;;;;;;;23.25;35.21;102102.09;5101982;28;20031;-72
2023/05/27 13:55:15;;;;;;;11.75;4.28;;;;;;;23.23;33.76;102102.38;5112294;28;20482;-72
2023/05/27 13:57:43;;;;;;;10.82;4.00;;;;;;;23.22;36.99;102084.19;5115885;27;20058;-72
2023/05/27 14:00:09;;;;;;;15.90;4.20;;;;;;;23.48;34.63;102084.91;5115955;28;20063;-70
2023/05/27 14:02:34;;;;;;;13.88;4.35;;;;;;;23.46;34.17;102086.28;5113802;28;20446;-71
2023/05/27 14:05:00;;;;;;;13.90;4.13;;;;;;;23.48;33.73;102082.13;5115959;28;20096;-73
2023/05/27 14:07:27;;;;;;;14.63;4.43;;;;;;;23.39;33.63;102078.31;5115776;28;20111;-73
2023/05/27 14:09:52;;;;;;;13.77;3.92;;;;;;;23.51;32.73;102075.22;5114592;28;20058;-72
2023/05/27 14:12:17;;;;;;;15.45;4.82;;;;;;;23.48;33.11;102075.81;5113322;28;20458;-71
2023/05/27 14:14:43;;;;;;;17.73;4.20;;;;;;;23.56;33.87;102071.63;5115813;28;20023;-70
2023/05/27 14:17:08;;;;;;;14.77;4.35;;;;;;;23.75;33.81;102063.50;5112264;28;20533;-70
2023/05/27 14:19:34;;;;;;;14.90;4.10;;;;;;;23.74;32.85;102062.66;5114947;28;20024;-73
2023/05/27 14:21:59;;;;;;;11.70;4.20;;;;;;;23.82;32.46;102064.81;5115212;28;20768;-73
2023/05/27 14:24:25;;;;;;;11.23;4.15;;;;;;;23.73;33.03;102055.47;5113921;28;20027;-70
2023/05/27 14:26:50;;;;;;;15.55;4.22;;;;;;;23.68;32.49;102061.88;5115320;28;20103;-72
2023/05/27 14:29:16;;;;;;;11.77;4.10;;;;;;;23.82;33.22;102056.53;5112777;28;20039;-70
2023/05/27 14:31:41;;;;;;;11.50;4.55;;;;;;;23.86;32.98;102056.84;5114988;28;20027;-70
2023/05/27 14:34:07;;;;;;;12.77;4.07;;;;;;;23.89;32.04;102056.25;5109164;28;20153;-70
2023/05/27 14:36:32;;;;;;;12.98;4.15;;;;;;;23.98;33.03;102057.31;5104319;28;20108;-70
2023/05/27 14:38:58;;;;;;;11.88;4.05;;;;;;;24.05;33.21;102055.03;5109348;28;20446;-70
2023/05/27 14:41:26;;;;;;;15.38;4.50;;;;;;;24.13;32.58;102064.66;5114101;28;20035;-70
2023/05/27 14:43:52;;;;;;;14.45;4.30;;;;;;;24.06;31.99;102061.38;5114952;27;20032;-68
2023/05/27 14:46:17;;;;;;;13.32;4.22;;;;;;;24.18;32.35;102045.25;5114761;28;20568;-71
2023/05/27 14:48:43;;;;;;;16.33;4.25;;;;;;;24.26;33.25;102046.56;5109091;28;20454;-73
2023/05/27 14:51:08;;;;;;;11.82;3.80;;;;;;;24.37;31.96;102044.56;5113098;28;20087;-72
2023/05/27 14:53:33;;;;;;;13.57;4.00;;;;;;;24.46;31.07;102050.28;5114978;28;20022;-72
2023/05/27 14:55:59;;;;;;;13.35;4.13;;;;;;;24.50;31.11;102041.13;5114293;28;20047;-73
2023/05/27 14:58:24;;;;;;;11.52;4.65;;;;;;;24.68;32.32;102036.00;5113120;28;20039;-71
2023/05/27 15:00:49;;;;;;;14.57;4.55;;;;;;;24.66;32.31;102036.31;5109738;28;20055;-72
2023/05/27 15:03:15;;;;;;;14.07;4.03;;;;;;;24.64;31.72;102032.16;5114241;28;20027;-73
2023/05/27 15:05:40;;;;;;;15.45;4.13;;;;;;;24.76;31.31;102033.44;5114059;28;20028;-70
2023/05/27 15:08:07;;;;;;;14.00;4.30;;;;;;;24.76;31.50;102032.63;5113308;28;20131;-72
2023/05/27 15:10:33;;;;;;;13.75;4.00;;;;;;;24.78;31.24;102041.44;5114074;28;20497;-72
2023/05/27 15:12:58;;;;;;;13.18;4.22;;;;;;;24.88;30.64;102033.03;5114519;28;20027;-71
2023/05/27 15:15:24;;;;;;;10.43;4.45;;;;;;;24.90;30.48;102022.47;5113638;28;20027;-71
2023/05/27 15:17:49;;;;;;;9.43;3.90;;;;;;;25.10;31.03;102018.63;5113268;28;20374;-72
2023/05/27 15:20:16;;;;;;;11.45;4.13;;;;;;;25.22;30.05;102023.75;5114173;28;20391;-72
2023/05/27 15:22:42;;;;;;;14.88;5.00;;;;;;;25.26;30.29;102022.06;5111233;28;20028;-72
2023/05/27 15:25:07;;;;;;;11.23;4.60;;;;;;;25.35;30.31;102013.09;5114050;28;20598;-72
2023/05/27 15:27:33;;;;;;;16.08;4.40;;;;;;;25.50;30.15;102009.31;5112525;27;20513;-72
2023/05/27 15:29:58;;;;;;;11.10;4.38;;;;;;;25.51;29.59;102011.78;5114098;28;20580;-72
2023/05/27 15:32:24;;;;;;;12.63;4.43;;;;;;;25.72;29.04;102005.94;5111124;28;20039;-72
2023/05/27 15:34:50;;;;;;;14.93;4.45;;;;;;;26.16;28.54;102004.72;5112917;28;20036;-72
2023/05/27 15:37:16;;;;;;;12.88;4.32;;;;;;;26.69;27.96;102006.31;5112732;28;20467;-72
2023/05/27 15:39:42;;;;;;;10.95;4.07;;;;;;;27.27;27.92;102009.59;5114217;28;20059;-72
2023/05/27 15:42:07;;;;;;;9.63;3.85;;;;;;;27.72;26.97;101999.44;5111751;28;20100;-74
2023/05/27 15:44:32;;;;;;;12.57;4.43;;;;;;;28.02;26.95;102001.81;5113903;28;20034;-73
2023/05/27 15:46:58;;;;;;;10.77;4.13;;;;;;;27.93;26.15;101998.91;5114111;28;20110;-73
2023/05/27 15:49:23;;;;;;;16.38;3.92;;;;;;;28.29;26.47;101989.69;5112711;28;20067;-70
2023/05/27 15:51:48;;;;;;;10.32;3.65;;;;;;;28.51;26.64;101990.81;5114042;28;20039;-74
2023/05/27 15:54:14;;;;;;;13.18;4.30;;;;;;;28.72;26.16;101994.69;5113722;28;20028;-69
2023/05/27 15:56:41;;;;;;;9.77;4.45;;;;;;;28.54;25.59;101990.19;5113381;28;20071;-71
2023/05/27 15:59:06;;;;;;;12.50;4.82;;;;;;;27.93;26.20;101993.34;5112815;28;20038;-69
2023/05/27 16:01:32;;;;;;;11.68;4.38;;;;;;;27.16;27.02;101997.88;5110546;28;20381;-71
2023/05/27 16:03:57;;;;;;;14.60;4.65;;;;;;;26.60;27.92;101992.31;5113334;28;20382;-72
2023/05/27 16:06:23;;;;;;;12.03;4.60;;;;;;;26.25;28.82;101989.03;5113663;28;20410;-73
